Time;durP1;ratioP1;P1;durP2;ratioP2;P2;SDS_P1;SDS_P2;PMS_P1;PMS_P2;Temp;Humidity;BMP_temperature;BMP_pressure;BME280_temperature;BME280_humidity;BME280_pressure;Samples;Min_cycle;Max_cycle;Signal;HPM_P1;HPM_P2
2022/05/30 00:01:23;;;;;;;3.97;1.38;;;9.80;99.90;;;;;;5032071;28;20041;-74
2022/05/30 00:03:49;;;;;;;7.55;1.30;;;9.80;99.90;;;;;;5014236;28;20045;-74
2022/05/30 00:06:19;;;;;;;5.00;1.40;;;9.70;99.90;;;;;;5015694;28;20083;-75
2022/05/30 00:08:45;;;;;;;3.83;1.10;;;9.60;99.90;;;;;;5031223;28;20490;-74
2022/05/30 00:11:14;;;;;;;5.60;1.30;;;9.60;99.90;;;;;;5031944;28;20068;-75
2022/05/30 00:13:41;;;;;;;5.85;1.52;;;9.50;99.90;;;;;;5015821;28;20042;-74
2022/05/30 00:16:13;;;;;;;5.47;1.45;;;9.50;99.90;;;;;;5031030;28;20087;-74
2022/05/30 00:18:39;;;;;;;6.57;1.50;;;9.40;99.90;;;;;;5013971;28;20048;-74
2022/05/30 00:21:05;;;;;;;4.28;1.25;;;9.40;99.90;;;;;;5031049;28;20413;-74
2022/05/30 00:23:31;;;;;;;7.95;1.52;;;9.30;99.90;;;;;;5015070;28;20393;-74
2022/05/30 00:25:56;;;;;;;6.45;1.42;;;9.30;99.90;;;;;;5014554;28;20037;-74
2022/05/30 00:28:22;;;;;;;9.73;1.95;;;9.30;99.90;;;;;;5015373;28;20405;-74
2022/05/30 00:30:49;;;;;;;4.32;1.35;;;9.30;99.90;;;;;;5031919;28;20052;-74
2022/05/30 00:33:16;;;;;;;3.95;1.27;;;9.30;99.90;;;;;;5021285;28;20053;-74
2022/05/30 00:35:42;;;;;;;3.92;1.40;;;9.20;99.90;;;;;;5023816;28;20125;-75
2022/05/30 00:38:09;;;;;;;7.38;1.42;;;9.20;99.90;;;;;;5028495;28;20061;-74
2022/05/30 00:40:35;;;;;;;7.07;1.40;;;9.30;99.90;;;;;;5031671;28;20050;-74
2022/05/30 00:43:18;;;;;;;6.97;1.38;;;9.20;99.90;;;;;;5014382;28;20394;-74
2022/05/30 00:45:44;;;;;;;5.38;1.77;;;9.30;99.90;;;;;;5034847;28;20069;-74
2022/05/30 00:48:10;;;;;;;5.10;1.40;;;9.30;99.90;;;;;;5034023;28;20026;-74
2022/05/30 00:50:37;;;;;;;7.30;1.73;;;9.30;99.90;;;;;;5034864;28;20115;-74
2022/05/30 00:53:03;;;;;;;3.45;1.30;;;9.20;99.90;;;;;;5035644;28;20394;-74
2022/05/30 00:55:29;;;;;;;5.95;1.70;;;9.10;99.90;;;;;;5034480;28;20561;-74
2022/05/30 00:57:56;;;;;;;7.47;1.70;;;9.10;99.90;;;;;;5035453;28;20081;-74
2022/05/30 01:00:25;;;;;;;6.68;1.80;;;9.10;99.90;;;;;;5034672;28;20401;-75
2022/05/30 01:06:30;;;;;;;5.43;1.83;;;9.00;99.90;;;;;;5019050;28;20393;-74
2022/05/30 01:08:27;;;;;;;5.90;1.70;;;8.90;99.90;;;;;;5035223;28;20049;-74
2022/05/30 01:10:53;;;;;;;6.03;1.40;;;8.90;99.90;;;;;;5035253;28;20053;-74
2022/05/30 01:13:19;;;;;;;5.40;1.73;;;8.80;99.90;;;;;;5034197;28;20038;-74
2022/05/30 01:15:45;;;;;;;6.28;1.80;;;8.80;99.90;;;;;;5034183;28;20076;-74
2022/05/30 01:18:23;;;;;;;4.13;1.40;;;8.70;99.90;;;;;;5034056;28;20037;-74
2022/05/30 01:21:22;;;;;;;4.78;1.70;;;8.70;99.90;;;;;;5034840;28;20043;-74
2022/05/30 01:24:14;;;;;;;10.23;1.98;;;8.60;99.90;;;;;;5034037;28;20030;-74
2022/05/30 01:27:07;;;;;;;4.18;1.33;;;8.60;99.90;;;;;;5001769;28;20095;-74
2022/05/30 01:29:45;;;;;;;4.28;1.48;;;8.60;99.90;;;;;;5034801;28;20544;-74
2022/05/30 01:32:18;;;;;;;4.28;1.70;;;8.60;99.90;;;;;;5018201;28;20045;-74
2022/05/30 01:34:43;;;;;;;;;;;8.50;99.90;;;;;;5034479;28;20493;-74
2022/05/30 01:37:09;;;;;;;5.13;1.65;;;8.50;99.90;;;;;;5034484;28;19921;-74
2022/05/30 01:39:35;;;;;;;10.38;1.90;;;8.50;99.90;;;;;;5033746;28;20057;-74
2022/05/30 01:42:00;;;;;;;6.00;1.85;;;8.50;99.90;;;;;;5034514;28;20043;-74
2022/05/30 01:44:26;;;;;;;5.60;1.75;;;8.40;99.90;;;;;;5017309;28;20432;-74
2022/05/30 01:46:52;;;;;;;5.93;1.73;;;8.50;99.90;;;;;;5016116;28;20449;-74
2022/05/30 01:49:18;;;;;;;7.45;1.75;;;8.40;99.90;;;;;;5039707;28;20087;-74
2022/05/30 01:51:44;;;;;;;6.18;1.88;;;8.50;99.90;;;;;;5035934;28;20087;-74
2022/05/30 01:54:10;;;;;;;5.38;1.83;;;8.50;99.90;;;;;;5016389;28;20072;-74
2022/05/30 01:56:36;;;;;;;5.25;1.83;;;8.50;99.90;;;;;;5015869;28;20045;-74
2022/05/30 01:59:02;;;;;;;7.00;2.08;;;8.50;99.90;;;;;;5017680;28;20132;-74
2022/05/30 02:01:28;;;;;;;5.90;1.80;;;8.50;99.90;;;;;;5034249;28;20080;-74
2022/05/30 02:03:55;;;;;;;5.55;1.80;;;8.50;99.90;;;;;;5033265;28;20037;-74
2022/05/30 02:06:23;;;;;;;7.63;1.80;;;8.60;99.90;;;;;;5033248;28;20045;-74
2022/05/30 02:08:49;;;;;;;5.45;2.10;;;8.50;99.90;;;;;;5033916;28;20552;-74
2022/05/30 02:11:16;;;;;;;6.50;1.88;;;8.50;99.90;;;;;;5033633;28;20690;-74
2022/05/30 02:13:42;;;;;;;6.22;1.85;;;8.50;99.90;;;;;;5034201;28;20375;-75
2022/05/30 02:18:56;;;;;;;5.70;2.00;;;8.40;99.90;;;;;;5032977;28;20045;-74
2022/05/30 02:21:22;;;;;;;6.85;1.63;;;8.40;99.90;;;;;;5033872;28;20390;-74
2022/05/30 02:23:47;;;;;;;5.45;1.80;;;8.30;99.90;;;;;;5034058;28;20041;-74
2022/05/30 02:26:13;;;;;;;6.22;1.90;;;8.30;99.90;;;;;;5032125;28;20041;-74
2022/05/30 02:28:39;;;;;;;5.93;1.90;;;8.20;99.90;;;;;;5050519;28;20033;-75
2022/05/30 02:31:05;;;;;;;6.70;2.45;;;8.10;99.90;;;;;;5049610;28;20041;-74
2022/05/30 02:38:59;;;;;;;6.38;1.90;;;8.10;99.90;;;;;;5049108;28;20066;-75
2022/05/30 02:41:24;;;;;;;5.55;1.90;;;8.10;99.90;;;;;;5016917;28;20130;-74
2022/05/30 02:43:50;;;;;;;5.97;1.80;;;8.10;99.90;;;;;;5033366;28;20172;-74
2022/05/30 02:46:17;;;;;;;5.50;1.92;;;8.00;99.90;;;;;;5031724;28;20041;-74
2022/05/30 02:48:43;;;;;;;4.47;2.28;;;8.10;99.90;;;;;;5033062;28;20048;-74
2022/05/30 02:51:08;;;;;;;5.50;1.73;;;7.90;99.90;;;;;;5048852;28;20112;-74
2022/05/30 02:53:34;;;;;;;6.63;1.92;;;7.90;99.90;;;;;;5016213;28;20041;-75
2022/05/30 02:56:01;;;;;;;5.03;1.63;;;7.90;99.90;;;;;;5033388;28;20440;-74
2022/05/30 02:58:26;;;;;;;4.38;1.60;;;8.00;99.90;;;;;;5031977;28;20038;-75
2022/05/30 03:00:52;;;;;;;2.67;1.40;;;8.00;99.90;;;;;;5016499;28;20091;-74
2022/05/30 03:03:18;;;;;;;5.13;1.77;;;8.00;99.90;;;;;;5032951;28;20042;-74
2022/05/30 03:05:44;;;;;;;3.90;1.45;;;8.00;99.90;;;;;;5032164;28;20095;-74
2022/05/30 03:08:10;;;;;;;7.13;2.22;;;7.90;99.90;;;;;;5015330;28;20037;-74
2022/05/30 03:10:36;;;;;;;4.47;1.40;;;7.90;99.90;;;;;;5033110;28;20033;-74
2022/05/30 03:13:03;;;;;;;3.55;1.30;;;7.90;99.90;;;;;;5032144;28;20092;-74
2022/05/30 03:15:28;;;;;;;2.63;1.05;;;7.90;99.90;;;;;;5032169;28;20047;-74
2022/05/30 03:17:54;;;;;;;1.52;0.80;;;7.90;99.90;;;;;;5046972;28;20476;-74
2022/05/30 03:20:20;;;;;;;4.00;1.30;;;7.90;99.90;;;;;;5032636;28;20091;-74
2022/05/30 03:22:47;;;;;;;3.72;1.20;;;7.90;99.90;;;;;;5032952;28;20033;-74
2022/05/30 03:25:12;;;;;;;1.67;0.98;;;7.80;99.90;;;;;;5014716;28;20033;-74
2022/05/30 03:27:38;;;;;;;2.95;0.90;;;7.80;99.90;;;;;;5031830;28;20052;-74
2022/05/30 03:30:05;;;;;;;1.88;1.00;;;7.90;99.90;;;;;;5032499;28;20079;-74
2022/05/30 03:32:31;;;;;;;2.70;0.98;;;7.90;99.90;;;;;;5032038;28;20064;-74
2022/05/30 03:34:56;;;;;;;1.92;1.17;;;7.90;99.90;;;;;;5016088;28;20037;-74
2022/05/30 03:37:22;;;;;;;2.20;1.00;;;7.90;99.90;;;;;;5031581;28;20144;-74
2022/05/30 03:39:47;;;;;;;3.92;1.38;;;7.70;99.90;;;;;;5032229;28;20072;-74
2022/05/30 03:42:14;;;;;;;3.28;1.30;;;7.60;99.90;;;;;;5032260;28;20118;-74
2022/05/30 03:44:43;;;;;;;2.53;1.20;;;7.60;99.90;;;;;;5031980;28;20033;-74
2022/05/30 03:47:10;;;;;;;2.13;1.20;;;7.60;99.90;;;;;;5024611;28;20040;-74
2022/05/30 03:49:35;;;;;;;3.45;1.40;;;7.60;99.90;;;;;;5011156;28;20052;-74
2022/05/30 03:52:01;;;;;;;2.83;1.48;;;7.60;99.90;;;;;;5015498;28;20405;-74
2022/05/30 03:54:26;;;;;;;2.45;1.23;;;7.50;99.90;;;;;;5031760;28;20121;-74
2022/05/30 03:56:52;;;;;;;3.67;1.30;;;7.40;99.90;;;;;;5031225;28;20044;-74
2022/05/30 03:59:18;;;;;;;2.25;1.30;;;7.40;99.90;;;;;;5032188;28;20047;-74
2022/05/30 04:01:44;;;;;;;4.57;1.48;;;7.40;99.90;;;;;;5031581;28;20076;-74
2022/05/30 04:04:12;;;;;;;2.90;1.60;;;7.40;99.90;;;;;;5031893;28;20042;-74
2022/05/30 04:06:38;;;;;;;3.03;1.55;;;7.40;99.90;;;;;;5031546;28;20432;-74
2022/05/30 04:09:04;;;;;;;5.13;2.10;;;7.50;99.90;;;;;;5031876;28;20051;-74
2022/05/30 04:11:30;;;;;;;3.50;1.80;;;7.60;99.90;;;;;;5015234;28;20128;-74
2022/05/30 04:13:56;;;;;;;4.25;1.63;;;7.70;99.90;;;;;;5015501;28;20048;-74
2022/05/30 04:16:22;;;;;;;4.35;1.80;;;7.70;99.90;;;;;;5031031;28;20037;-74
2022/05/30 04:18:48;;;;;;;5.28;1.80;;;7.70;99.90;;;;;;5015931;28;20045;-74
2022/05/30 04:21:14;;;;;;;4.72;1.80;;;7.80;99.90;;;;;;5019112;28;20485;-74
2022/05/30 04:23:42;;;;;;;4.43;1.55;;;7.80;99.90;;;;;;5019517;28;20121;-74
2022/05/30 04:26:09;;;;;;;3.47;1.77;;;7.80;99.90;;;;;;5036180;28;20051;-75
2022/05/30 04:28:35;;;;;;;3.60;1.83;;;7.80;99.90;;;;;;5034431;28;20575;-74
2022/05/30 04:31:05;;;;;;;3.65;1.73;;;7.90;99.90;;;;;;5035854;28;20087;-74
2022/05/30 04:33:33;;;;;;;4.45;1.80;;;7.90;99.90;;;;;;5036015;28;20131;-74
2022/05/30 04:35:59;;;;;;;4.90;1.77;;;7.90;99.90;;;;;;5032023;28;20037;-74
2022/05/30 04:38:25;;;;;;;5.68;1.77;;;7.90;99.90;;;;;;5018267;28;20053;-74
2022/05/30 04:40:50;;;;;;;5.93;1.88;;;7.90;99.90;;;;;;5033202;28;20052;-74
2022/05/30 04:43:16;;;;;;;3.92;1.63;;;7.90;99.90;;;;;;5028580;28;20047;-74
2022/05/30 04:45:41;;;;;;;4.75;1.83;;;7.90;99.90;;;;;;5015236;28;20037;-74
2022/05/30 04:48:07;;;;;;;4.70;1.65;;;7.90;99.90;;;;;;5034808;28;20390;-74
2022/05/30 04:50:33;;;;;;;4.05;1.70;;;8.00;99.90;;;;;;5032758;28;20044;-74
2022/05/30 04:52:58;;;;;;;4.15;1.88;;;8.00;99.90;;;;;;5033773;28;20106;-74
2022/05/30 04:55:24;;;;;;;4.20;1.73;;;8.00;99.90;;;;;;5032923;28;20037;-74
2022/05/30 04:57:50;;;;;;;5.63;2.00;;;8.10;99.90;;;;;;5033190;28;20136;-74
2022/05/30 05:00:21;;;;;;;5.55;1.70;;;8.20;99.90;;;;;;5018149;28;20449;-74
2022/05/30 05:02:47;;;;;;;4.28;2.00;;;8.20;99.90;;;;;;5034080;28;20092;-74
2022/05/30 05:05:13;;;;;;;6.18;2.30;;;8.20;99.90;;;;;;5017365;28;20029;-74
2022/05/30 05:08:05;;;;;;;4.65;1.70;;;8.20;99.90;;;;;;5025430;28;20405;-74
2022/05/30 05:10:41;;;;;;;5.00;1.83;;;8.40;99.90;;;;;;5022379;28;20060;-74
2022/05/30 05:13:08;;;;;;;2.78;1.60;;;8.40;99.90;;;;;;5032527;28;20120;-74
2022/05/30 05:15:33;;;;;;;6.07;1.98;;;8.40;99.90;;;;;;5015936;28;20041;-74
2022/05/30 05:17:59;;;;;;;3.35;1.75;;;8.40;99.90;;;;;;5033894;28;20489;-74
2022/05/30 05:20:25;;;;;;;6.05;2.15;;;8.50;99.90;;;;;;5016521;28;20079;-74
2022/05/30 05:22:52;;;;;;;4.85;2.13;;;8.60;99.90;;;;;;5033612;28;20041;-74
2022/05/30 05:25:17;;;;;;;8.30;2.17;;;8.50;99.90;;;;;;5017140;28;20558;-74
2022/05/30 05:27:44;;;;;;;6.22;2.10;;;8.60;99.90;;;;;;5032756;28;20041;-74
2022/05/30 05:30:10;;;;;;;4.85;2.00;;;8.60;99.90;;;;;;5031836;28;20512;-74
2022/05/30 05:32:36;;;;;;;7.38;2.55;;;8.60;99.90;;;;;;5032693;28;20060;-74
2022/05/30 05:35:02;;;;;;;7.22;2.53;;;8.70;99.90;;;;;;5032695;28;20045;-74
2022/05/30 05:37:28;;;;;;;6.47;2.40;;;8.70;99.90;;;;;;5034306;28;20068;-74
2022/05/30 05:39:54;;;;;;;5.00;2.00;;;8.80;99.90;;;;;;5019854;28;20061;-74
2022/05/30 05:42:19;;;;;;;5.90;2.20;;;8.80;99.90;;;;;;5030165;28;20030;-74
2022/05/30 05:44:45;;;;;;;4.90;1.98;;;8.90;99.90;;;;;;5046950;28;20037;-74
2022/05/30 05:47:11;;;;;;;5.50;2.28;;;9.20;99.90;;;;;;5018204;28;20033;-74
2022/05/30 05:49:37;;;;;;;4.78;2.20;;;9.20;99.90;;;;;;5030451;28;20048;-74
2022/05/30 05:52:03;;;;;;;5.18;2.55;;;9.40;99.90;;;;;;5030632;28;20498;-74
2022/05/30 05:54:31;;;;;;;5.90;2.30;;;9.50;99.90;;;;;;5030103;28;20073;-74
2022/05/30 05:56:57;;;;;;;6.38;2.42;;;9.40;99.90;;;;;;5027318;28;20517;-74
2022/05/30 05:59:23;;;;;;;5.80;1.98;;;9.40;99.90;;;;;;5028853;28;20045;-74
2022/05/30 06:01:48;;;;;;;5.22;2.28;;;9.50;99.90;;;;;;5019754;28;20038;-74
2022/05/30 06:04:14;;;;;;;6.35;2.20;;;9.60;99.90;;;;;;5036629;28;20483;-74
2022/05/30 06:06:40;;;;;;;6.78;2.33;;;9.70;99.90;;;;;;5032766;28;20038;-74
2022/05/30 06:09:07;;;;;;;5.63;2.15;;;9.80;99.90;;;;;;5023006;28;20616;-74
2022/05/30 06:11:33;;;;;;;6.28;2.33;;;9.80;99.90;;;;;;5032718;28;20518;-74
2022/05/30 06:13:59;;;;;;;3.97;1.83;;;9.90;99.90;;;;;;5013976;28;20091;-75
2022/05/30 06:16:27;;;;;;;4.20;1.95;;;10.00;99.90;;;;;;5030460;28;20405;-74
2022/05/30 06:18:55;;;;;;;6.28;2.10;;;10.10;99.90;;;;;;5016197;28;20041;-74
2022/05/30 06:21:23;;;;;;;4.75;2.13;;;10.20;99.90;;;;;;5018655;28;20052;-74
2022/05/30 06:23:49;;;;;;;5.90;2.00;;;10.20;99.90;;;;;;5049700;28;20037;-74
2022/05/30 06:26:15;;;;;;;3.42;1.40;;;10.30;99.90;;;;;;5031220;28;20029;-74
2022/05/30 06:28:41;;;;;;;6.43;1.88;;;10.50;99.90;;;;;;5030996;28;20037;-74
2022/05/30 06:31:08;;;;;;;2.30;1.15;;;10.60;99.90;;;;;;5031662;28;20378;-74
2022/05/30 06:33:34;;;;;;;4.07;1.10;;;10.70;99.90;;;;;;5020189;28;20097;-74
2022/05/30 06:35:59;;;;;;;4.35;1.10;;;10.60;99.90;;;;;;5033090;28;20505;-74
2022/05/30 06:38:25;;;;;;;4.38;1.25;;;10.60;99.90;;;;;;5036025;28;20054;-74
2022/05/30 06:40:50;;;;;;;4.38;1.25;;;10.60;99.90;;;;;;5021806;28;20045;-74
2022/05/30 06:43:16;;;;;;;5.53;1.50;;;10.60;99.90;;;;;;5046623;28;20045;-75
2022/05/30 06:45:47;;;;;;;5.32;1.33;;;10.60;99.90;;;;;;5014976;28;20033;-75
2022/05/30 06:48:13;;;;;;;2.17;1.15;;;10.60;99.90;;;;;;5014692;28;20116;-74
2022/05/30 06:50:39;;;;;;;3.63;1.30;;;10.60;99.90;;;;;;5030681;28;20175;-74
2022/05/30 06:53:04;;;;;;;6.47;1.50;;;10.70;99.90;;;;;;5015188;28;20087;-75
2022/05/30 06:55:31;;;;;;;3.10;1.38;;;10.70;99.90;;;;;;5013759;28;20485;-75
2022/05/30 06:58:12;;;;;;;4.78;1.67;;;10.90;99.90;;;;;;5015525;28;20045;-75
2022/05/30 07:00:37;;;;;;;4.90;1.00;;;11.10;99.90;;;;;;5030758;28;20045;-75
2022/05/30 07:03:03;;;;;;;4.18;1.20;;;11.40;99.90;;;;;;5031878;28;20060;-75
2022/05/30 07:05:28;;;;;;;2.97;0.98;;;11.40;99.90;;;;;;5014299;28;20047;-75
2022/05/30 07:07:56;;;;;;;3.63;0.95;;;11.60;99.90;;;;;;5032346;28;20037;-75
2022/05/30 07:10:22;;;;;;;3.78;0.90;;;11.80;99.90;;;;;;5029611;28;20053;-75
2022/05/30 07:12:48;;;;;;;3.70;0.90;;;11.80;99.90;;;;;;5015169;28;20076;-75
2022/05/30 07:15:14;;;;;;;1.63;0.68;;;11.80;99.90;;;;;;5031100;28;20083;-75
2022/05/30 07:17:39;;;;;;;3.90;1.10;;;11.80;99.90;;;;;;5031686;28;20087;-75
2022/05/30 07:20:06;;;;;;;5.38;1.02;;;12.00;99.90;;;;;;5030620;28;20042;-75
2022/05/30 07:22:31;;;;;;;2.35;0.90;;;11.90;99.90;;;;;;5031149;28;20433;-74
2022/05/30 07:24:57;;;;;;;3.83;1.00;;;11.80;99.90;;;;;;5013832;28;20045;-75
2022/05/30 07:27:23;;;;;;;2.72;1.00;;;11.80;99.90;;;;;;5016260;28;20092;-75
2022/05/30 07:29:49;;;;;;;1.83;0.80;;;11.70;99.90;;;;;;5038257;28;20034;-74
2022/05/30 07:32:14;;;;;;;5.90;1.35;;;11.80;99.90;;;;;;5031511;28;20552;-75
2022/05/30 07:34:40;;;;;;;2.65;0.90;;;11.80;99.90;;;;;;5032281;28;20033;-75
2022/05/30 07:37:06;;;;;;;2.28;0.90;;;11.90;99.90;;;;;;5015518;28;20049;-74
2022/05/30 07:39:36;;;;;;;3.05;0.95;;;11.90;99.90;;;;;;5029685;28;20111;-74
2022/05/30 07:42:03;;;;;;;3.00;0.70;;;11.90;99.90;;;;;;5011270;28;20080;-71
2022/05/30 07:44:28;;;;;;;4.22;0.95;;;11.90;99.90;;;;;;5028692;28;20100;-74
2022/05/30 07:46:54;;;;;;;5.80;1.13;;;11.80;99.90;;;;;;5031106;28;20033;-74
2022/05/30 07:49:19;;;;;;;3.38;1.00;;;11.90;99.90;;;;;;5015660;28;20091;-74
2022/05/30 07:51:46;;;;;;;2.78;1.02;;;11.90;99.90;;;;;;5030440;28;20099;-74
2022/05/30 07:54:11;;;;;;;4.15;1.10;;;12.10;99.90;;;;;;5031060;28;20106;-74
2022/05/30 07:56:37;;;;;;;3.85;1.17;;;12.20;99.90;;;;;;5029388;28;20061;-74
2022/05/30 07:59:03;;;;;;;1.75;0.73;;;12.20;99.90;;;;;;5014771;28;20545;-74
2022/05/30 08:01:29;;;;;;;4.53;0.93;;;12.10;99.90;;;;;;5029213;28;20071;-74
2022/05/30 08:03:54;;;;;;;1.77;0.90;;;12.10;99.90;;;;;;5014386;28;20115;-74
2022/05/30 08:06:26;;;;;;;2.83;0.80;;;12.10;99.90;;;;;;5013442;28;20037;-74
2022/05/30 08:08:52;;;;;;;3.97;1.13;;;12.10;99.90;;;;;;5048373;28;20057;-74
2022/05/30 08:11:22;;;;;;;2.70;0.90;;;12.10;99.90;;;;;;5014073;28;20469;-74
2022/05/30 08:13:48;;;;;;;1.30;0.65;;;12.10;99.90;;;;;;5014888;28;20063;-74
2022/05/30 08:16:20;;;;;;;2.33;0.70;;;12.20;99.90;;;;;;5029687;28;20038;-74
2022/05/30 08:18:45;;;;;;;3.30;0.80;;;12.10;99.90;;;;;;5030647;28;20065;-74
2022/05/30 08:21:11;;;;;;;2.70;0.60;;;12.10;99.90;;;;;;5030780;28;20073;-74
2022/05/30 08:23:37;;;;;;;2.65;0.70;;;12.00;99.90;;;;;;5013896;28;20037;-74
2022/05/30 08:26:02;;;;;;;1.23;0.60;;;11.80;99.90;;;;;;5013302;28;20041;-74
2022/05/30 08:28:29;;;;;;;2.95;0.50;;;11.80;99.90;;;;;;5014359;28;20041;-74
2022/05/30 08:30:54;;;;;;;2.40;0.50;;;11.70;99.90;;;;;;5013009;28;20091;-74
2022/05/30 08:33:21;;;;;;;0.70;0.45;;;11.70;99.90;;;;;;5029320;28;20037;-74
2022/05/30 08:35:58;;;;;;;1.67;0.45;;;11.70;99.90;;;;;;5034296;28;20409;-74
2022/05/30 08:38:24;;;;;;;1.60;0.50;;;11.80;99.90;;;;;;5024514;28;20063;-74
2022/05/30 08:43:39;;;;;;;2.00;0.80;;;12.00;99.90;;;;;;5028522;28;20042;-73
2022/05/30 08:46:22;;;;;;;2.90;0.80;;;12.00;99.90;;;;;;5027686;28;20067;-74
2022/05/30 08:49:05;;;;;;;3.72;0.90;;;12.10;99.90;;;;;;5030082;28;20103;-74
2022/05/30 08:51:45;;;;;;;4.22;2.15;;;12.50;99.90;;;;;;5027311;28;20033;-74
2022/05/30 08:54:48;;;;;;;3.33;0.90;;;12.90;99.90;;;;;;5031438;28;20440;-74
2022/05/30 08:58:01;;;;;;;2.60;0.90;;;12.80;99.90;;;;;;5014633;28;20041;-75
2022/05/30 09:00:42;;;;;;;1.45;0.75;;;13.20;99.90;;;;;;5027250;28;20049;-75
2022/05/30 09:03:21;;;;;;;2.72;0.85;;;13.40;99.90;;;;;;5014175;28;20539;-74
2022/05/30 09:06:06;;;;;;;0.65;0.63;;;13.40;99.90;;;;;;5017598;28;20120;-74
2022/05/30 09:08:52;;;;;;;2.53;0.60;;;13.30;99.90;;;;;;5035238;28;20068;-74
2022/05/30 09:11:38;;;;;;;2.00;0.65;;;13.10;99.90;;;;;;5034728;28;20068;-74
2022/05/30 09:14:12;;;;;;;1.27;0.55;;;13.00;99.90;;;;;;5033687;28;20045;-74
2022/05/30 09:16:41;;;;;;;1.55;0.55;;;12.70;99.90;;;;;;5052038;28;20049;-74
2022/05/30 09:19:09;;;;;;;3.90;0.80;;;12.70;99.90;;;;;;5018173;28;20053;-75
2022/05/30 09:21:36;;;;;;;3.10;0.88;;;12.60;99.90;;;;;;5017341;28;20053;-74
2022/05/30 09:24:02;;;;;;;0.75;0.40;;;12.60;99.90;;;;;;5033998;28;20490;-74
2022/05/30 09:26:33;;;;;;;2.83;0.52;;;12.40;99.90;;;;;;5034464;28;20044;-74
2022/05/30 09:29:19;;;;;;;0.52;0.40;;;12.40;99.90;;;;;;5034365;28;20498;-74
2022/05/30 09:32:04;;;;;;;0.55;0.30;;;12.30;99.90;;;;;;5018037;28;20041;-74
2022/05/30 09:34:39;;;;;;;1.00;0.52;;;12.20;99.90;;;;;;5034980;28;20079;-74
2022/05/30 09:37:05;;;;;;;0.70;0.40;;;12.10;99.90;;;;;;5034186;28;20094;-74
2022/05/30 09:39:46;;;;;;;2.45;0.75;;;12.10;99.90;;;;;;5033657;28;20092;-74
2022/05/30 09:42:33;;;;;;;4.47;0.73;;;12.10;99.90;;;;;;5034921;28;20366;-74
2022/05/30 09:45:11;;;;;;;1.58;0.43;;;12.10;99.90;;;;;;5033346;28;20513;-74
2022/05/30 09:47:37;;;;;;;1.27;0.40;;;12.10;99.90;;;;;;5033488;28;20466;-74
2022/05/30 09:50:14;;;;;;;1.08;0.35;;;11.90;99.90;;;;;;5034629;28;20083;-74
2022/05/30 09:52:41;;;;;;;2.17;0.60;;;11.70;99.90;;;;;;5034222;28;20470;-75
2022/05/30 09:55:45;;;;;;;0.85;0.50;;;11.60;99.90;;;;;;5049178;28;20053;-75
2022/05/30 09:58:11;;;;;;;1.23;0.65;;;11.50;99.90;;;;;;5016987;28;20045;-75
2022/05/30 10:01:09;;;;;;;1.08;0.40;;;11.50;99.90;;;;;;5033808;28;20030;-75
2022/05/30 10:03:38;;;;;;;2.60;0.80;;;11.60;99.90;;;;;;5006598;28;20050;-74
2022/05/30 10:06:20;;;;;;;2.15;0.50;;;11.60;99.90;;;;;;5027256;28;20034;-74
2022/05/30 10:08:48;;;;;;;1.58;0.60;;;11.80;99.90;;;;;;5033975;28;20043;-74
2022/05/30 10:11:52;;;;;;;1.17;0.50;;;11.80;99.90;;;;;;5017270;28;20095;-74
2022/05/30 10:14:23;;;;;;;2.00;0.55;;;12.00;99.90;;;;;;5023216;28;20041;-74
2022/05/30 10:16:50;;;;;;;2.63;0.63;;;11.90;99.90;;;;;;5048912;28;20444;-74
2022/05/30 10:19:30;;;;;;;2.15;0.60;;;12.00;99.90;;;;;;5033366;28;20048;-74
2022/05/30 10:28:34;;;;;;;1.75;0.63;;;12.00;99.90;;;;;;5033362;28;20132;-74
2022/05/30 10:31:11;;;;;;;0.55;0.50;;;12.10;99.90;;;;;;5017104;28;20038;-74
2022/05/30 10:33:56;;;;;;;1.02;0.55;;;12.20;99.90;;;;;;5032085;28;20498;-74
2022/05/30 10:36:34;;;;;;;3.63;0.60;;;12.20;99.90;;;;;;5017099;28;20044;-74
2022/05/30 10:39:16;;;;;;;1.52;0.52;;;12.20;99.90;;;;;;5016440;28;20045;-73
2022/05/30 10:41:48;;;;;;;1.42;0.55;;;12.40;99.90;;;;;;5016576;28;20512;-74
2022/05/30 10:44:21;;;;;;;1.15;0.45;;;12.40;99.90;;;;;;5016654;28;20029;-74
2022/05/30 10:47:01;;;;;;;0.93;0.40;;;12.40;99.90;;;;;;5033603;28;20052;-74
2022/05/30 10:49:34;;;;;;;1.45;0.40;;;12.60;99.90;;;;;;5015190;28;20037;-74
2022/05/30 10:52:21;;;;;;;0.63;0.60;;;12.70;99.90;;;;;;5032859;28;20041;-74
2022/05/30 10:54:51;;;;;;;0.73;0.40;;;12.70;99.90;;;;;;5031340;28;20397;-74
2022/05/30 10:57:33;;;;;;;1.70;0.40;;;12.60;99.90;;;;;;5032954;28;20087;-74
2022/05/30 11:00:11;;;;;;;0.20;0.20;;;12.50;99.90;;;;;;5016566;28;20485;-74
2022/05/30 11:02:51;;;;;;;0.38;0.38;;;12.60;99.90;;;;;;5032250;28;20585;-75
2022/05/30 11:05:45;;;;;;;2.42;0.50;;;12.60;99.90;;;;;;5032678;28;20116;-74
2022/05/30 11:08:39;;;;;;;1.25;0.57;;;12.60;99.90;;;;;;5032506;28;20037;-74
2022/05/30 11:11:12;;;;;;;1.30;0.60;;;12.80;99.90;;;;;;5032622;28;20555;-74
2022/05/30 11:13:50;;;;;;;3.38;0.63;;;13.10;99.90;;;;;;5032665;28;20045;-73
2022/05/30 11:16:47;;;;;;;1.48;0.47;;;13.30;99.90;;;;;;5031082;28;20397;-73
2022/05/30 11:19:50;;;;;;;1.33;0.70;;;13.40;99.90;;;;;;5043516;28;20037;-73
2022/05/30 11:22:33;;;;;;;1.80;0.60;;;13.40;99.90;;;;;;5038494;28;20088;-73
2022/05/30 11:24:58;;;;;;;2.95;0.90;;;13.60;99.90;;;;;;5046418;28;20076;-74
2022/05/30 11:27:53;;;;;;;1.33;0.60;;;13.60;99.90;;;;;;5013285;28;20037;-73
2022/05/30 11:30:40;;;;;;;1.27;0.70;;;13.60;99.90;;;;;;5003710;28;20049;-74
2022/05/30 11:33:17;;;;;;;1.30;0.50;;;13.20;99.90;;;;;;5048621;28;20064;-73
2022/05/30 11:36:03;;;;;;;1.33;0.45;;;13.20;99.90;;;;;;5047991;28;20060;-73
2022/05/30 11:38:39;;;;;;;1.30;0.50;;;13.00;99.90;;;;;;5047258;28;20412;-73
2022/05/30 11:41:39;;;;;;;1.10;0.40;;;13.00;99.90;;;;;;5031444;28;20050;-73
2022/05/30 11:44:10;;;;;;;1.70;0.60;;;12.80;99.90;;;;;;5015951;28;20083;-73
2022/05/30 11:46:54;;;;;;;1.60;0.47;;;12.60;99.90;;;;;;5031703;28;20048;-73
2022/05/30 11:49:49;;;;;;;2.40;0.40;;;12.50;99.90;;;;;;5030259;28;20072;-73
2022/05/30 11:52:23;;;;;;;2.45;0.50;;;12.30;99.90;;;;;;5005314;28;20085;-74
2022/05/30 11:55:21;;;;;;;3.15;0.50;;;12.20;99.90;;;;;;5030787;28;20045;-74
2022/05/30 11:57:52;;;;;;;1.55;0.55;;;12.40;99.90;;;;;;5048364;28;20046;-74
2022/05/30 12:00:30;;;;;;;2.58;0.60;;;12.30;99.90;;;;;;5028723;28;20041;-74
2022/05/30 12:03:14;;;;;;;2.38;0.60;;;12.40;99.90;;;;;;5032028;28;20037;-74
2022/05/30 12:05:58;;;;;;;0.85;0.60;;;12.50;99.90;;;;;;5031589;28;20072;-73
2022/05/30 12:08:39;;;;;;;1.77;0.50;;;12.50;99.90;;;;;;5030830;28;20394;-74
2022/05/30 12:11:45;;;;;;;1.45;0.47;;;12.60;99.90;;;;;;5030747;28;20037;-74
2022/05/30 12:14:23;;;;;;;1.77;0.60;;;12.60;99.90;;;;;;5031573;28;20366;-73
2022/05/30 12:17:10;;;;;;;1.58;0.60;;;12.70;99.90;;;;;;4997335;28;20141;-73
2022/05/30 12:25:53;;;;;;;0.40;0.40;;;12.70;99.90;;;;;;5042385;28;20041;-74
2022/05/30 12:28:28;;;;;;;2.72;0.55;;;12.60;99.90;;;;;;5046824;28;20056;-74
2022/05/30 12:31:05;;;;;;;1.35;0.50;;;12.70;99.90;;;;;;5051531;28;20070;-74
2022/05/30 12:33:31;;;;;;;2.92;0.50;;;12.90;99.90;;;;;;5051232;28;20444;-73
2022/05/30 12:36:08;;;;;;;0.77;0.52;;;13.00;99.90;;;;;;5034324;28;20169;-74
2022/05/30 12:38:54;;;;;;;1.70;0.70;;;13.10;99.90;;;;;;5020818;28;20045;-73
2022/05/30 12:41:56;;;;;;;0.73;0.50;;;13.10;99.90;;;;;;5033507;28;20144;-73
2022/05/30 12:44:41;;;;;;;2.10;0.60;;;13.20;99.90;;;;;;5048901;28;20042;-73
2022/05/30 12:47:20;;;;;;;3.53;0.85;;;13.20;99.90;;;;;;5039576;28;20087;-73
2022/05/30 12:49:50;;;;;;;1.08;0.50;;;13.30;99.90;;;;;;5034300;28;20449;-73
2022/05/30 12:52:18;;;;;;;1.65;0.50;;;13.40;99.90;;;;;;5037732;28;20049;-73
2022/05/30 12:55:08;;;;;;;1.45;0.50;;;13.50;99.90;;;;;;5017058;28;20049;-73
2022/05/30 12:57:43;;;;;;;1.25;0.50;;;13.30;99.90;;;;;;5044569;28;20041;-73
2022/05/30 13:00:23;;;;;;;1.20;0.63;;;13.50;99.90;;;;;;5026079;28;20111;-73
2022/05/30 13:03:00;;;;;;;1.15;0.50;;;13.40;99.90;;;;;;5023605;28;20063;-73
2022/05/30 13:05:31;;;;;;;3.45;0.70;;;13.40;99.90;;;;;;5015516;28;20034;-73
2022/05/30 13:07:58;;;;;;;2.83;0.82;;;13.40;99.90;;;;;;5014881;28;20040;-73
2022/05/30 13:10:23;;;;;;;2.78;0.80;;;13.40;99.90;;;;;;5033553;28;20045;-73
2022/05/30 13:13:03;;;;;;;2.33;0.60;;;13.50;99.90;;;;;;5034537;28;20048;-73
2022/05/30 13:15:49;;;;;;;2.38;0.75;;;13.40;99.90;;;;;;5045061;28;20498;-73
2022/05/30 13:18:20;;;;;;;1.95;0.80;;;13.30;99.90;;;;;;5026458;28;20041;-73
2022/05/30 13:20:53;;;;;;;1.50;0.70;;;13.40;99.90;;;;;;5034043;28;20445;-73
2022/05/30 13:23:35;;;;;;;2.30;0.85;;;13.50;99.90;;;;;;5032603;28;20048;-73
2022/05/30 13:26:03;;;;;;;4.43;0.85;;;13.60;99.90;;;;;;5031829;28;20037;-73
2022/05/30 13:28:33;;;;;;;3.45;0.77;;;13.60;99.90;;;;;;5034462;28;20044;-72
2022/05/30 13:31:02;;;;;;;1.70;0.85;;;13.50;99.90;;;;;;5033699;28;20053;-72
2022/05/30 13:33:34;;;;;;;2.25;0.90;;;13.60;99.90;;;;;;5032287;28;20077;-72
2022/05/30 13:36:03;;;;;;;2.42;0.90;;;13.50;99.90;;;;;;5031652;28;20061;-72
2022/05/30 13:38:42;;;;;;;3.13;0.80;;;13.50;99.90;;;;;;5017393;28;20041;-78
2022/05/30 13:41:29;;;;;;;2.78;0.88;;;13.60;99.90;;;;;;5033803;28;20053;-78